createdAt,value
2022-12-03T00:00:36.752Z,24.12
2022-12-03T00:03:03.984Z,24.12
2022-12-03T00:05:30.929Z,24.12
2022-12-03T00:07:57.788Z,24.11
2022-12-03T00:10:24.679Z,24.10
2022-12-03T00:12:51.382Z,24.09
2022-12-03T00:15:18.139Z,24.08
2022-12-03T00:17:44.885Z,24.09
2022-12-03T00:20:21.480Z,24.08
2022-12-03T00:22:48.479Z,24.07
2022-12-03T00:25:15.480Z,24.07
2022-12-03T00:27:43.137Z,24.06
2022-12-03T00:30:11.704Z,24.08
2022-12-03T00:32:38.547Z,24.07
2022-12-03T00:35:05.785Z,24.07
2022-12-03T00:37:32.558Z,24.05
2022-12-03T00:39:59.338Z,24.03
2022-12-03T00:42:26.076Z,24.04
2022-12-03T00:44:53.176Z,24.04
2022-12-03T00:47:20.451Z,24.04
2022-12-03T00:49:47.238Z,24.05
2022-12-03T00:52:14.223Z,24.04
2022-12-03T00:54:40.933Z,24.02
2022-12-03T00:57:07.724Z,24.02
2022-12-03T00:59:34.706Z,24.02
2022-12-03T01:02:01.552Z,24.01
2022-12-03T01:04:28.501Z,24.01
2022-12-03T01:06:55.439Z,24.01
2022-12-03T01:09:22.105Z,24.01
2022-12-03T01:11:48.855Z,24.01
2022-12-03T01:14:17.839Z,24.02
2022-12-03T01:16:45.347Z,24.01
2022-12-03T01:19:13.246Z,24.00
2022-12-03T01:21:40.328Z,24.00
2022-12-03T01:24:07.510Z,24.01
2022-12-03T01:26:34.232Z,24.01
2022-12-03T01:29:00.961Z,24.01
2022-12-03T01:31:27.811Z,24.02
2022-12-03T01:33:55.159Z,24.01
2022-12-03T01:36:22.073Z,24.01
2022-12-03T01:38:48.925Z,23.99
2022-12-03T01:41:17.822Z,24.00
2022-12-03T01:43:45.163Z,23.98
2022-12-03T01:46:14.471Z,23.98
2022-12-03T01:48:41.443Z,23.97
2022-12-03T01:51:08.317Z,23.97
2022-12-03T01:53:35.074Z,23.96
2022-12-03T01:56:02.004Z,23.95
2022-12-03T01:58:29.701Z,23.94
2022-12-03T02:01:04.820Z,23.94
2022-12-03T02:03:32.040Z,23.93
2022-12-03T02:05:58.803Z,23.92
2022-12-03T02:08:38.152Z,23.94
2022-12-03T02:11:09.594Z,23.93
2022-12-03T02:13:36.653Z,23.91
2022-12-03T02:16:04.763Z,23.92
2022-12-03T02:18:32.095Z,23.92
2022-12-03T02:21:11.484Z,23.92
2022-12-03T02:23:46.960Z,23.91
2022-12-03T02:26:13.885Z,23.90
2022-12-03T02:28:40.717Z,23.90
2022-12-03T02:31:07.697Z,23.89
2022-12-03T02:33:34.837Z,23.88
2022-12-03T02:36:03.857Z,23.89
2022-12-03T02:38:34.412Z,23.89
2022-12-03T02:41:05.233Z,23.88
2022-12-03T02:43:32.460Z,23.87
2022-12-03T02:46:01.793Z,23.88
2022-12-03T02:48:37.137Z,23.87
2022-12-03T02:51:09.206Z,23.88
2022-12-03T02:53:42.623Z,23.87
2022-12-03T02:56:12.058Z,23.86
2022-12-03T02:58:40.833Z,23.87
2022-12-03T03:01:09.546Z,23.88
2022-12-03T03:03:37.616Z,23.87
2022-12-03T03:06:07.678Z,23.86
2022-12-03T03:08:35.807Z,23.87
2022-12-03T03:11:02.858Z,23.87
2022-12-03T03:13:31.604Z,23.86
2022-12-03T03:15:58.965Z,23.87
2022-12-03T03:18:25.817Z,23.86
2022-12-03T03:20:53.370Z,23.87
2022-12-03T03:23:22.775Z,23.86
2022-12-03T03:26:03.744Z,23.87
2022-12-03T03:28:31.634Z,23.86
2022-12-03T03:31:02.613Z,23.86
2022-12-03T03:33:29.848Z,23.85
2022-12-03T03:35:57.276Z,23.85
2022-12-03T03:38:24.345Z,23.85
2022-12-03T03:40:52.028Z,23.84
2022-12-03T03:43:21.210Z,23.83
2022-12-03T03:45:49.028Z,23.84
2022-12-03T03:48:16.069Z,23.83
2022-12-03T03:50:43.879Z,23.84
2022-12-03T03:53:12.133Z,23.85
2022-12-03T03:55:39.925Z,23.83
2022-12-03T03:58:06.789Z,23.82
2022-12-03T04:00:34.983Z,23.82
2022-12-03T04:03:06.263Z,23.82
2022-12-03T04:05:33.270Z,23.81
2022-12-03T04:08:00.121Z,23.81
2022-12-03T04:10:27.298Z,23.81
2022-12-03T04:12:54.271Z,23.82
2022-12-03T04:15:20.989Z,23.80
2022-12-03T04:17:47.833Z,23.80
2022-12-03T04:20:15.178Z,23.80
2022-12-03T04:22:41.843Z,23.79
2022-12-03T04:25:10.864Z,23.77
2022-12-03T04:27:37.652Z,23.76
2022-12-03T04:30:04.632Z,23.76
2022-12-03T04:32:31.577Z,23.76
2022-12-03T04:34:58.331Z,23.73
2022-12-03T04:37:25.138Z,23.73
2022-12-03T04:39:51.982Z,23.72
2022-12-03T04:42:18.894Z,23.71
2022-12-03T04:44:45.614Z,23.71
2022-12-03T04:47:18.094Z,23.71
2022-12-03T04:49:50.352Z,23.71
2022-12-03T04:52:19.040Z,23.67
2022-12-03T04:54:46.330Z,23.66
2022-12-03T04:57:13.411Z,23.66
2022-12-03T04:59:40.595Z,23.64
2022-12-03T05:02:09.792Z,23.64
2022-12-03T05:04:36.931Z,23.63
2022-12-03T05:07:04.508Z,23.63
2022-12-03T05:09:31.668Z,23.64
2022-12-03T05:11:58.478Z,23.64
2022-12-03T05:14:25.341Z,23.64
2022-12-03T05:16:52.151Z,23.65
2022-12-03T05:19:19.205Z,23.65
2022-12-03T05:21:46.019Z,23.64
2022-12-03T05:24:12.805Z,23.66
2022-12-03T05:26:39.679Z,23.64
2022-12-03T05:29:06.450Z,23.64
2022-12-03T05:31:33.209Z,23.64
2022-12-03T05:34:01.067Z,23.65
2022-12-03T05:36:27.890Z,23.65
2022-12-03T05:38:54.663Z,23.65
2022-12-03T05:41:21.428Z,23.65
2022-12-03T05:43:48.177Z,23.64
2022-12-03T05:46:14.939Z,23.62
2022-12-03T05:48:41.940Z,23.61
2022-12-03T05:51:08.976Z,23.59
2022-12-03T05:53:35.635Z,23.60
2022-12-03T05:56:02.338Z,23.59
2022-12-03T05:58:29.126Z,23.58
2022-12-03T06:00:55.944Z,23.58
2022-12-03T06:03:22.808Z,23.57
2022-12-03T06:05:49.710Z,23.57
2022-12-03T06:08:16.531Z,23.58
2022-12-03T06:10:43.347Z,23.59
2022-12-03T06:13:10.140Z,23.60
2022-12-03T06:15:43.321Z,23.60
2022-12-03T06:18:10.701Z,23.62
2022-12-03T06:20:37.421Z,23.63
2022-12-03T06:23:04.202Z,23.64
2022-12-03T06:25:30.978Z,23.66
2022-12-03T06:27:57.771Z,23.68
2022-12-03T06:30:24.702Z,23.69
2022-12-03T06:32:51.445Z,23.70
2022-12-03T06:35:18.143Z,23.72
2022-12-03T06:37:44.849Z,23.72
2022-12-03T06:40:12.458Z,23.74
2022-12-03T06:42:39.302Z,23.74
2022-12-03T06:45:06.655Z,23.77
2022-12-03T06:47:33.598Z,23.77
2022-12-03T06:50:00.440Z,23.79
2022-12-03T06:52:27.328Z,23.80
2022-12-03T06:54:54.421Z,23.81
2022-12-03T06:57:21.265Z,23.83
2022-12-03T06:59:48.011Z,23.82
2022-12-03T07:02:14.666Z,23.83
2022-12-03T07:04:46.099Z,23.82
2022-12-03T07:07:14.026Z,23.82
2022-12-03T07:09:40.707Z,23.82
2022-12-03T07:12:07.630Z,23.84
2022-12-03T07:14:34.312Z,23.84
2022-12-03T07:17:01.145Z,23.85
2022-12-03T07:19:32.483Z,23.84
2022-12-03T07:22:00.127Z,23.86
2022-12-03T07:24:27.517Z,23.86
2022-12-03T07:26:54.342Z,23.86
2022-12-03T07:29:21.178Z,23.87
2022-12-03T07:31:48.491Z,23.86
2022-12-03T07:34:15.373Z,23.85
2022-12-03T07:36:42.188Z,23.85
2022-12-03T07:39:08.959Z,23.85
2022-12-03T07:41:35.735Z,23.83
2022-12-03T07:44:02.423Z,23.81
2022-12-03T07:46:29.309Z,23.81
2022-12-03T07:48:56.104Z,23.76
2022-12-03T07:51:26.223Z,23.77
2022-12-03T07:53:57.322Z,23.76
2022-12-03T07:56:24.078Z,23.77
2022-12-03T07:58:50.817Z,23.79
2022-12-03T08:01:17.544Z,23.78
2022-12-03T08:03:45.180Z,23.78
2022-12-03T08:06:11.976Z,23.76
2022-12-03T08:08:39.516Z,23.74
2022-12-03T08:11:06.859Z,23.72
2022-12-03T08:13:34.935Z,23.68
2022-12-03T08:16:18.099Z,23.65
2022-12-03T08:18:47.881Z,23.62
2022-12-03T08:21:18.882Z,23.60
2022-12-03T08:23:46.713Z,23.57
2022-12-03T08:26:32.917Z,23.55
2022-12-03T08:29:01.874Z,23.54
2022-12-03T08:31:33.427Z,23.52
2022-12-03T08:34:21.325Z,23.52
2022-12-03T08:36:52.136Z,23.51
2022-12-03T08:39:32.538Z,23.50
2022-12-03T08:42:16.710Z,23.52
2022-12-03T08:44:43.469Z,23.50
2022-12-03T08:47:10.282Z,23.49
2022-12-03T08:49:37.754Z,23.49
2022-12-03T08:52:20.079Z,23.49
2022-12-03T08:54:55.064Z,23.49
2022-12-03T08:57:29.329Z,23.49
2022-12-03T09:00:19.166Z,23.49
2022-12-03T09:02:51.874Z,23.50
2022-12-03T09:05:23.005Z,23.50
2022-12-03T09:07:50.097Z,23.51
2022-12-03T09:10:18.041Z,23.53
2022-12-03T09:12:45.658Z,23.53
2022-12-03T09:15:12.650Z,23.55
2022-12-03T09:17:39.439Z,23.57
2022-12-03T09:20:07.120Z,23.59
2022-12-03T09:22:33.835Z,23.58
2022-12-03T09:25:00.517Z,23.57
2022-12-03T09:27:27.255Z,23.59
2022-12-03T09:29:54.007Z,23.59
2022-12-03T09:32:20.800Z,23.60
2022-12-03T09:34:47.597Z,23.59
2022-12-03T09:37:14.411Z,23.59
2022-12-03T09:39:41.620Z,23.58
2022-12-03T09:42:09.468Z,23.54
2022-12-03T09:44:37.860Z,23.49
2022-12-03T09:47:05.246Z,23.41
2022-12-03T09:49:38.257Z,23.35
2022-12-03T09:52:07.223Z,23.29
2022-12-03T09:54:34.626Z,23.24
2022-12-03T09:57:04.445Z,23.20
2022-12-03T09:59:32.785Z,23.15
2022-12-03T10:02:00.042Z,23.12
2022-12-03T10:04:28.511Z,23.09
2022-12-03T10:06:57.401Z,23.07
2022-12-03T10:09:26.463Z,23.03
2022-12-03T10:11:53.303Z,23.00
2022-12-03T10:14:20.540Z,22.97
2022-12-03T10:16:47.476Z,22.95
2022-12-03T10:19:35.054Z,22.93
2022-12-03T10:22:02.025Z,22.92
2022-12-03T10:24:36.927Z,22.92
2022-12-03T10:27:20.616Z,22.92
2022-12-03T10:29:56.117Z,22.93
2022-12-03T10:32:47.748Z,22.94
2022-12-03T10:35:17.595Z,22.93
2022-12-03T10:38:04.378Z,22.96
2022-12-03T10:40:36.707Z,22.99
2022-12-03T10:43:13.648Z,23.03
2022-12-03T10:45:41.322Z,23.05
2022-12-03T10:48:22.424Z,23.09
2022-12-03T10:51:04.774Z,23.09
2022-12-03T10:53:34.425Z,23.11
2022-12-03T10:56:05.212Z,23.14
2022-12-03T10:58:37.836Z,23.18
2022-12-03T11:01:18.820Z,23.23
2022-12-03T11:03:46.405Z,23.27
2022-12-03T11:06:18.628Z,23.32
2022-12-03T11:08:53.007Z,23.36
2022-12-03T11:11:29.661Z,23.41
2022-12-03T11:13:57.488Z,23.42
2022-12-03T11:16:39.678Z,23.44
2022-12-03T11:19:12.670Z,23.45
2022-12-03T11:22:05.640Z,23.44
2022-12-03T11:24:37.948Z,23.44
2022-12-03T11:27:04.788Z,23.43
2022-12-03T11:29:46.535Z,23.44
2022-12-03T11:32:39.170Z,23.47
2022-12-03T11:35:28.346Z,23.50
2022-12-03T11:37:55.153Z,23.50
2022-12-03T11:40:21.888Z,23.52
2022-12-03T11:42:49.507Z,23.54
2022-12-03T11:45:16.491Z,23.56
2022-12-03T11:48:00.230Z,23.57
2022-12-03T11:50:51.148Z,23.56
2022-12-03T11:53:24.763Z,23.55
2022-12-03T11:56:04.581Z,23.55
2022-12-03T11:58:33.170Z,23.53
2022-12-03T12:01:02.024Z,23.52
2022-12-03T12:03:32.909Z,23.51
2022-12-03T12:06:12.006Z,23.52
2022-12-03T12:08:41.716Z,23.50
2022-12-03T12:11:20.092Z,23.49
2022-12-03T12:13:58.256Z,23.49
2022-12-03T12:16:39.926Z,23.49
2022-12-03T12:19:32.763Z,23.52
2022-12-03T12:22:31.896Z,23.51
2022-12-03T12:25:22.768Z,23.51
2022-12-03T12:27:49.537Z,23.53
2022-12-03T12:30:20.523Z,23.55
2022-12-03T12:33:01.965Z,23.55
2022-12-03T12:35:30.754Z,23.56
2022-12-03T12:38:12.635Z,23.58
2022-12-03T12:40:42.063Z,23.58
2022-12-03T12:43:23.751Z,23.60
2022-12-03T12:45:54.355Z,23.59
2022-12-03T12:48:22.509Z,23.60
2022-12-03T12:50:53.783Z,23.62
2022-12-03T12:53:30.583Z,23.61
2022-12-03T12:56:06.682Z,23.61
2022-12-03T12:58:33.720Z,23.61
2022-12-03T13:01:15.223Z,23.63
2022-12-03T13:03:42.292Z,23.62
2022-12-03T13:06:16.088Z,23.62
2022-12-03T13:08:45.651Z,23.63
2022-12-03T13:11:35.015Z,23.63
2022-12-03T13:14:10.798Z,23.64
2022-12-03T13:16:38.132Z,23.65
2022-12-03T13:19:15.789Z,23.65
2022-12-03T13:21:45.761Z,23.65
2022-12-03T13:24:31.407Z,23.68
2022-12-03T13:27:20.044Z,23.69
2022-12-03T13:29:54.825Z,23.70
2022-12-03T13:32:33.595Z,23.68
2022-12-03T13:35:23.940Z,23.64
2022-12-03T13:37:50.691Z,23.58
2022-12-03T13:40:32.523Z,23.53
2022-12-03T13:42:59.460Z,23.48
2022-12-03T13:45:58.397Z,23.44
2022-12-03T13:48:31.350Z,23.37
2022-12-03T13:51:07.942Z,23.37
2022-12-03T13:53:38.441Z,23.34
2022-12-03T13:56:26.061Z,23.27
2022-12-03T13:58:52.895Z,23.24
2022-12-03T14:01:19.568Z,23.22
2022-12-03T14:03:46.400Z,23.20
2022-12-03T14:06:13.086Z,23.20
2022-12-03T14:08:39.967Z,23.20
2022-12-03T14:11:07.213Z,23.20
2022-12-03T14:13:33.957Z,23.18
2022-12-03T14:16:02.065Z,23.18
2022-12-03T14:18:28.792Z,23.18
2022-12-03T14:20:55.472Z,23.18
2022-12-03T14:23:22.087Z,23.16
2022-12-03T14:25:48.707Z,23.15
2022-12-03T14:28:15.328Z,23.14
2022-12-03T14:30:42.069Z,23.14
2022-12-03T14:33:08.753Z,23.13
2022-12-03T14:35:35.528Z,23.12
2022-12-03T14:38:02.434Z,23.11
2022-12-03T14:40:29.113Z,23.10
2022-12-03T14:42:55.925Z,23.11
2022-12-03T14:45:22.644Z,23.10
2022-12-03T14:47:49.333Z,23.10
2022-12-03T14:50:16.076Z,23.12
2022-12-03T14:52:42.962Z,23.09
2022-12-03T14:55:09.786Z,23.05
2022-12-03T14:57:36.712Z,23.03
2022-12-03T15:00:05.696Z,23.01
2022-12-03T15:02:32.533Z,23.00
2022-12-03T15:04:59.245Z,22.97
2022-12-03T15:07:26.890Z,22.95
2022-12-03T15:09:54.166Z,22.95
2022-12-03T15:12:22.391Z,22.95
2022-12-03T15:14:49.076Z,22.95
2022-12-03T15:17:15.876Z,22.95
2022-12-03T15:19:42.676Z,22.97
2022-12-03T15:22:09.401Z,22.99
2022-12-03T15:24:36.271Z,23.01
2022-12-03T15:27:03.064Z,23.02
2022-12-03T15:29:29.909Z,23.04
2022-12-03T15:31:56.693Z,23.04
2022-12-03T15:34:23.810Z,23.05
2022-12-03T15:36:51.385Z,23.04
2022-12-03T15:39:18.140Z,23.03
2022-12-03T15:41:44.884Z,23.02
2022-12-03T15:44:11.598Z,23.03
2022-12-03T15:46:38.399Z,23.01
2022-12-03T15:49:05.077Z,23.03
2022-12-03T15:51:32.048Z,23.02
2022-12-03T15:53:58.764Z,23.03
2022-12-03T15:56:26.184Z,23.03
2022-12-03T15:58:53.040Z,23.03
2022-12-03T16:01:19.917Z,23.03
2022-12-03T16:03:46.744Z,23.04
2022-12-03T16:06:13.629Z,23.06
2022-12-03T16:08:40.685Z,23.06
2022-12-03T16:11:07.406Z,23.05
2022-12-03T16:13:34.251Z,23.07
2022-12-03T16:16:02.573Z,23.08
2022-12-03T16:18:29.841Z,23.08
2022-12-03T16:20:56.508Z,23.08
2022-12-03T16:23:23.218Z,23.07
2022-12-03T16:26:05.015Z,23.07
2022-12-03T16:28:31.841Z,23.07
2022-12-03T16:30:58.912Z,23.06
2022-12-03T16:33:27.710Z,23.06
2022-12-03T16:35:54.923Z,23.05
2022-12-03T16:38:24.388Z,23.06
2022-12-03T16:40:51.527Z,23.06
2022-12-03T16:43:18.320Z,23.08
2022-12-03T16:45:45.081Z,23.07
2022-12-03T16:48:11.928Z,23.07
2022-12-03T16:50:38.705Z,23.07
2022-12-03T16:53:05.417Z,23.07
2022-12-03T16:55:32.200Z,23.06
2022-12-03T16:57:58.963Z,23.07
2022-12-03T17:00:25.745Z,23.07
2022-12-03T17:02:52.872Z,23.05
2022-12-03T17:05:20.123Z,23.03
2022-12-03T17:07:46.908Z,23.00
2022-12-03T17:10:13.913Z,22.97
2022-12-03T17:13:08.216Z,22.92
2022-12-03T17:15:27.614Z,22.87
2022-12-03T17:17:54.290Z,22.83
2022-12-03T17:20:21.088Z,22.80
2022-12-03T17:22:47.862Z,22.80
2022-12-03T17:25:16.182Z,22.78
2022-12-03T17:27:45.301Z,22.78
2022-12-03T17:30:13.305Z,22.75
2022-12-03T17:32:40.215Z,22.75
2022-12-03T17:35:08.235Z,22.73
2022-12-03T17:38:08.187Z,22.74
2022-12-03T17:40:35.324Z,22.73
2022-12-03T17:43:02.137Z,22.72
2022-12-03T17:45:34.725Z,22.72
2022-12-03T17:48:01.480Z,22.71
2022-12-03T17:50:28.325Z,22.70
2022-12-03T17:52:55.102Z,22.70
2022-12-03T17:55:31.263Z,22.72
2022-12-03T17:58:00.781Z,22.76
2022-12-03T18:00:29.798Z,22.80
2022-12-03T18:02:57.017Z,22.86
2022-12-03T18:05:23.747Z,22.91
2022-12-03T18:07:51.115Z,22.95
2022-12-03T18:10:18.272Z,23.01
2022-12-03T18:12:44.940Z,23.05
2022-12-03T18:15:11.849Z,23.11
2022-12-03T18:17:39.725Z,23.15
2022-12-03T18:20:08.356Z,23.20
2022-12-03T18:22:35.374Z,23.23
2022-12-03T18:25:02.531Z,23.26
2022-12-03T18:27:29.376Z,23.29
2022-12-03T18:29:57.584Z,23.35
2022-12-03T18:32:29.698Z,23.38
2022-12-03T18:35:00.227Z,23.45
2022-12-03T18:37:28.882Z,23.46
2022-12-03T18:39:57.537Z,23.48
2022-12-03T18:42:25.142Z,23.50
2022-12-03T18:44:53.918Z,23.53
2022-12-03T18:47:26.735Z,23.56
2022-12-03T18:49:54.357Z,23.58
2022-12-03T18:52:23.612Z,23.59
2022-12-03T18:54:50.626Z,23.61
2022-12-03T18:57:17.974Z,23.64
2022-12-03T18:59:44.689Z,23.64
2022-12-03T19:03:00.628Z,23.66
2022-12-03T19:05:07.757Z,23.66
2022-12-03T19:07:34.833Z,23.67
2022-12-03T19:10:01.628Z,23.68
2022-12-03T19:12:28.268Z,23.68
2022-12-03T19:14:55.057Z,23.67
2022-12-03T19:17:21.858Z,23.67
2022-12-03T19:19:49.033Z,23.68
2022-12-03T19:22:16.464Z,23.67
2022-12-03T19:24:43.434Z,23.68
2022-12-03T19:27:10.468Z,23.68
2022-12-03T19:29:37.343Z,23.69
2022-12-03T19:32:04.155Z,23.69
2022-12-03T19:34:31.010Z,23.71
2022-12-03T19:36:57.814Z,23.71
2022-12-03T19:39:24.664Z,23.76
2022-12-03T19:41:51.418Z,23.76
2022-12-03T19:44:19.169Z,23.76
2022-12-03T19:46:45.892Z,23.77
2022-12-03T19:49:12.795Z,23.78
2022-12-03T19:51:39.587Z,23.79
2022-12-03T19:54:10.450Z,23.80
2022-12-03T19:56:37.670Z,23.79
2022-12-03T19:59:05.379Z,23.79
2022-12-03T20:01:34.893Z,23.80
2022-12-03T20:04:03.595Z,23.80
2022-12-03T20:06:34.871Z,23.81
2022-12-03T20:09:06.923Z,23.81
2022-12-03T20:11:34.767Z,23.81
2022-12-03T20:14:05.178Z,23.81
2022-12-03T20:16:32.494Z,23.82
2022-12-03T20:19:02.845Z,23.83
2022-12-03T20:21:31.858Z,23.83
2022-12-03T20:23:58.995Z,23.83
2022-12-03T20:26:25.872Z,23.82
2022-12-03T20:28:56.729Z,23.85
2022-12-03T20:31:28.835Z,23.83
2022-12-03T20:33:58.737Z,23.85
2022-12-03T20:36:26.522Z,23.84
2022-12-03T20:38:58.323Z,23.85
2022-12-03T20:41:25.282Z,23.86
2022-12-03T20:43:52.345Z,23.86
2022-12-03T20:46:30.725Z,23.89
2022-12-03T20:48:58.603Z,23.90
2022-12-03T20:51:28.212Z,23.90
2022-12-03T20:53:55.734Z,23.90
2022-12-03T20:56:28.947Z,23.93
2022-12-03T20:58:55.737Z,23.94
2022-12-03T21:01:27.031Z,23.95
2022-12-03T21:03:55.847Z,23.96
2022-12-03T21:06:25.534Z,23.97
2022-12-03T21:08:54.536Z,23.99
2022-12-03T21:11:23.823Z,24.00
2022-12-03T21:13:51.432Z,23.99
2022-12-03T21:16:39.757Z,24.01
2022-12-03T21:19:10.732Z,24.00
2022-12-03T21:21:37.661Z,24.01
2022-12-03T21:24:04.793Z,24.01
2022-12-03T21:26:31.643Z,24.01
2022-12-03T21:28:58.409Z,24.02
2022-12-03T21:31:26.753Z,24.02
2022-12-03T21:33:55.373Z,24.05
2022-12-03T21:36:23.579Z,24.04
2022-12-03T21:38:50.603Z,24.05
2022-12-03T21:41:17.754Z,24.07
2022-12-03T21:43:44.883Z,24.08
2022-12-03T21:47:10.468Z,24.11
2022-12-03T21:49:01.350Z,24.12
2022-12-03T21:51:28.159Z,24.14
2022-12-03T21:53:54.881Z,24.17
2022-12-03T21:56:21.808Z,24.18
2022-12-03T21:58:48.572Z,24.22
2022-12-03T22:01:19.145Z,24.24
2022-12-03T22:03:46.364Z,24.26
2022-12-03T22:06:13.766Z,24.27
2022-12-03T22:08:40.899Z,24.29
2022-12-03T22:11:11.581Z,24.32
2022-12-03T22:13:39.426Z,24.33
2022-12-03T22:16:09.161Z,24.35
2022-12-03T22:18:36.593Z,24.37
2022-12-03T22:21:05.775Z,24.39
2022-12-03T22:23:33.034Z,24.40
2022-12-03T22:26:01.664Z,24.41
2022-12-03T22:28:29.149Z,24.41
2022-12-03T22:30:55.907Z,24.42
2022-12-03T22:33:23.116Z,24.42
2022-12-03T22:36:03.700Z,24.43
2022-12-03T22:38:31.053Z,24.42
2022-12-03T22:40:58.557Z,24.43
2022-12-03T22:43:25.450Z,24.44
2022-12-03T22:45:55.916Z,24.45
2022-12-03T22:48:23.290Z,24.42
2022-12-03T22:50:51.611Z,24.45
2022-12-03T22:53:18.951Z,24.45
2022-12-03T22:55:53.656Z,24.47
2022-12-03T22:58:20.417Z,24.48
2022-12-03T23:00:47.260Z,24.50
2022-12-03T23:03:14.171Z,24.51
2022-12-03T23:05:41.064Z,24.51
2022-12-03T23:08:11.063Z,24.53
2022-12-03T23:10:41.021Z,24.54
2022-12-03T23:13:08.447Z,24.55
2022-12-03T23:15:35.334Z,24.57
2022-12-03T23:18:02.173Z,24.58
2022-12-03T23:20:29.248Z,24.60
2022-12-03T23:22:56.336Z,24.60
2022-12-03T23:25:23.018Z,24.61
2022-12-03T23:27:49.709Z,24.62
2022-12-03T23:30:17.194Z,24.63
2022-12-03T23:32:43.922Z,24.63
2022-12-03T23:35:12.537Z,24.64
2022-12-03T23:37:39.467Z,24.65
2022-12-03T23:40:07.015Z,24.65
2022-12-03T23:42:33.730Z,24.67
2022-12-03T23:45:00.460Z,24.66
2022-12-03T23:47:27.209Z,24.68
2022-12-03T23:49:54.125Z,24.69
2022-12-03T23:52:20.994Z,24.69
2022-12-03T23:54:47.940Z,24.70
2022-12-03T23:57:14.679Z,24.69
2022-12-03T23:59:41.419Z,24.69
